Time;durP1;ratioP1;P1;durP2;ratioP2;P2;SDS_P1;SDS_P2;PMS_P1;PMS_P2;Temp;Humidity;BMP_temperature;BMP_pressure;BME280_temperature;BME280_humidity;BME280_pressure;Samples;Min_cycle;Max_cycle;Signal;HPM_P1;HPM_P2
2023/05/10 00:01:03;;;;;;;10.95;3.40;;;;;;;;;;6207113;23;20103;-67
2023/05/10 00:03:30;;;;;;;;;;;;;;;;;;6206448;23;20131;-68
2023/05/10 00:06:04;;;;;;;13.50;3.53;;;;;;;;;;6207755;23;19923;-68
2023/05/10 00:08:31;;;;;;;9.10;3.90;;;;;;;;;;6206215;23;20027;-68
2023/05/10 00:11:05;;;;;;;8.50;3.35;;;;;;;;;;6205837;23;20549;-68
2023/05/10 00:13:32;;;;;;;7.05;3.42;;;;;;;;;;6206866;23;20514;-68
2023/05/10 00:15:59;;;;;;;12.15;3.60;;;;;;;;;;6208686;23;20112;-66
2023/05/10 00:18:40;;;;;;;6.10;3.58;;;;;;;;;;6208972;23;20063;-55
2023/05/10 00:21:07;;;;;;;11.00;3.38;;;;;;;;;;6208496;23;20521;-54
2023/05/10 00:23:41;;;;;;;5.38;3.53;;;;;;;;;;6207617;23;20024;-54
2023/05/10 00:26:08;;;;;;;5.63;3.70;;;;;;;;;;6208442;23;20079;-49
2023/05/10 00:28:35;;;;;;;9.70;3.60;;;;;;;;;;6208485;23;20593;-53
2023/05/10 00:31:09;;;;;;;11.88;3.75;;;;;;;;;;6207707;23;20103;-53
2023/05/10 00:33:36;;;;;;;7.72;3.30;;;;;;;;;;6208923;23;20056;-53
2023/05/10 00:36:10;;;;;;;5.97;3.58;;;;;;;;;;6209260;23;20032;-52
2023/05/10 00:38:37;;;;;;;8.32;4.00;;;;;;;;;;6209265;23;20055;-48
2023/05/10 00:41:05;;;;;;;4.95;3.22;;;;;;;;;;6208858;23;20107;-54
2023/05/10 00:43:38;;;;;;;8.45;3.55;;;;;;;;;;6208715;23;20024;-46
2023/05/10 00:46:06;;;;;;;6.50;3.83;;;;;;;;;;6209195;23;20394;-59
2023/05/10 00:48:39;;;;;;;7.28;3.35;;;;;;;;;;6209450;23;20016;-49
2023/05/10 00:51:06;;;;;;;10.95;3.58;;;;;;;;;;6210008;23;20103;-50
2023/05/10 00:53:34;;;;;;;6.70;3.60;;;;;;;;;;6208305;23;20052;-51
2023/05/10 00:56:08;;;;;;;7.65;3.60;;;;;;;;;;6209311;23;20023;-51
2023/05/10 00:58:36;;;;;;;8.73;3.83;;;;;;;;;;6208302;23;20147;-52
2023/05/10 01:01:10;;;;;;;8.18;3.78;;;;;;;;;;6208422;23;20024;-54
2023/05/10 01:03:37;;;;;;;8.48;3.50;;;;;;;;;;6208029;23;20025;-66
2023/05/10 01:06:05;;;;;;;7.35;3.70;;;;;;;;;;6208067;23;20063;-67
2023/05/10 01:08:38;;;;;;;6.20;3.90;;;;;;;;;;6208770;23;20024;-66
2023/05/10 01:11:06;;;;;;;12.50;3.75;;;;;;;;;;6207105;23;20147;-65
2023/05/10 01:13:41;;;;;;;9.68;4.05;;;;;;;;;;6207732;23;20104;-67
2023/05/10 01:16:15;;;;;;;8.27;3.83;;;;;;;;;;6207826;23;20103;-66
2023/05/10 01:18:50;;;;;;;5.50;3.53;;;;;;;;;;6209633;23;20031;-66
2023/05/10 01:21:18;;;;;;;8.88;3.83;;;;;;;;;;6208083;23;20411;-65
2023/05/10 01:23:51;;;;;;;8.85;3.65;;;;;;;;;;6207957;23;20028;-65
2023/05/10 01:26:43;;;;;;;12.13;3.50;;;;;;;;;;6208766;23;20021;-65
2023/05/10 01:29:29;;;;;;;6.85;3.33;;;;;;;;;;6207146;23;20123;-65
2023/05/10 01:32:03;;;;;;;6.75;3.90;;;;;;;;;;6181760;23;20095;-57
2023/05/10 01:34:36;;;;;;;9.18;3.40;;;;;;;;;;6208477;23;20460;-47
2023/05/10 01:37:16;;;;;;;12.65;3.60;;;;;;;;;;6208273;23;20025;-49
2023/05/10 01:39:43;;;;;;;6.55;3.53;;;;;;;;;;6206867;23;20024;-43
2023/05/10 01:42:27;;;;;;;11.98;3.72;;;;;;;;;;6207353;23;20123;-44
2023/05/10 01:44:54;;;;;;;11.10;3.97;;;;;;;;;;6205002;23;20027;-45
2023/05/10 01:47:31;;;;;;;7.80;3.60;;;;;;;;;;6206019;23;20056;-44
2023/05/10 01:50:01;;;;;;;6.28;3.95;;;;;;;;;;6208192;23;20021;-54
2023/05/10 01:52:38;;;;;;;9.20;3.03;;;;;;;;;;6205967;23;20067;-57
2023/05/10 01:55:07;;;;;;;6.38;3.60;;;;;;;;;;6207234;23;20493;-56
2023/05/10 01:57:41;;;;;;;5.53;3.10;;;;;;;;;;6208258;23;20429;-57
2023/05/10 02:00:09;;;;;;;8.07;3.70;;;;;;;;;;6202905;23;20452;-51
2023/05/10 02:02:47;;;;;;;10.77;3.78;;;;;;;;;;6179216;23;20870;-48
2023/05/10 02:05:15;;;;;;;6.50;3.70;;;;;;;;;;6207627;23;20127;-53
2023/05/10 02:07:50;;;;;;;7.25;3.45;;;;;;;;;;6206005;23;20103;-46
2023/05/10 02:10:17;;;;;;;;;;;;;;;;;;6206667;23;20078;-48
2023/05/10 02:12:51;;;;;;;6.82;3.50;;;;;;;;;;6206190;23;19969;-48
2023/05/10 02:15:32;;;;;;;8.07;3.72;;;;;;;;;;6206764;23;20021;-46
2023/05/10 02:18:06;;;;;;;12.63;4.20;;;;;;;;;;6183270;23;20418;-58
2023/05/10 02:20:40;;;;;;;6.50;3.50;;;;;;;;;;6207889;23;20055;-59
2023/05/10 02:23:09;;;;;;;9.95;3.25;;;;;;;;;;6206260;23;20020;-58
2023/05/10 02:25:38;;;;;;;11.18;4.45;;;;;;;;;;6206156;23;20071;-58
2023/05/10 02:28:13;;;;;;;8.48;3.90;;;;;;;;;;6207437;23;20478;-49
2023/05/10 02:30:40;;;;;;;9.13;3.42;;;;;;;;;;6207003;23;20083;-43
2023/05/10 02:33:14;;;;;;;11.02;3.97;;;;;;;;;;6207998;23;20112;-54
2023/05/10 02:35:42;;;;;;;8.43;3.88;;;;;;;;;;6206336;23;20132;-52
2023/05/10 02:38:09;;;;;;;5.70;3.65;;;;;;;;;;6207353;23;20028;-54
2023/05/10 02:40:43;;;;;;;11.70;4.00;;;;;;;;;;6208036;23;20043;-55
2023/05/10 02:43:14;;;;;;;6.68;3.60;;;;;;;;;;6209241;23;20059;-54
2023/05/10 02:45:48;;;;;;;7.50;3.78;;;;;;;;;;6207001;23;20020;-50
2023/05/10 02:48:15;;;;;;;;;;;;;;;;;;6209222;23;20112;-66
2023/05/10 02:50:51;;;;;;;7.45;3.55;;;;;;;;;;6207568;23;20686;-47
2023/05/10 02:53:21;;;;;;;5.90;3.88;;;;;;;;;;6180486;23;20027;-48
2023/05/10 02:55:56;;;;;;;7.88;4.03;;;;;;;;;;6208417;23;20024;-50
2023/05/10 02:58:23;;;;;;;5.28;3.55;;;;;;;;;;6209026;23;20039;-49
2023/05/10 03:00:57;;;;;;;10.95;3.85;;;;;;;;;;6205549;23;20103;-49
2023/05/10 03:03:24;;;;;;;9.48;3.60;;;;;;;;;;6206778;23;20055;-52
2023/05/10 03:05:58;;;;;;;8.27;3.90;;;;;;;;;;6207988;23;20100;-65
2023/05/10 03:08:28;;;;;;;6.97;4.28;;;;;;;;;;6205684;23;20028;-65
2023/05/10 03:11:02;;;;;;;6.20;3.70;;;;;;;;;;6205832;23;20104;-65
2023/05/10 03:13:40;;;;;;;15.70;4.20;;;;;;;;;;6206439;23;20099;-65
2023/05/10 03:16:22;;;;;;;9.60;3.92;;;;;;;;;;6207693;23;20840;-56
2023/05/10 03:19:01;;;;;;;9.52;4.28;;;;;;;;;;6205568;23;20494;-51
2023/05/10 03:21:30;;;;;;;8.52;3.63;;;;;;;;;;6206810;23;20119;-54
2023/05/10 03:24:07;;;;;;;4.90;3.60;;;;;;;;;;6206840;23;20350;-51
2023/05/10 03:26:35;;;;;;;6.53;3.80;;;;;;;;;;6205905;23;20100;-56
2023/05/10 03:29:10;;;;;;;8.80;3.92;;;;;;;;;;6206173;23;20031;-54
2023/05/10 03:31:38;;;;;;;8.73;3.80;;;;;;;;;;6207192;23;20099;-55
2023/05/10 03:34:12;;;;;;;12.23;4.07;;;;;;;;;;6208835;23;20025;-56
2023/05/10 03:36:39;;;;;;;9.05;3.88;;;;;;;;;;6205435;23;20127;-57
2023/05/10 03:39:07;;;;;;;7.88;4.05;;;;;;;;;;6207041;23;20406;-57
2023/05/10 03:41:41;;;;;;;10.65;4.10;;;;;;;;;;6207282;23;20115;-57
2023/05/10 03:44:08;;;;;;;8.00;4.13;;;;;;;;;;6206377;23;20029;-51
2023/05/10 03:46:42;;;;;;;7.18;3.78;;;;;;;;;;6206274;23;20025;-65
2023/05/10 03:49:09;;;;;;;6.65;3.95;;;;;;;;;;6209458;23;20025;-66
2023/05/10 03:51:37;;;;;;;7.75;4.35;;;;;;;;;;6208055;23;20056;-64
2023/05/10 03:54:10;;;;;;;9.52;4.03;;;;;;;;;;6208786;23;20721;-65
2023/05/10 03:56:37;;;;;;;7.40;3.88;;;;;;;;;;6208778;23;20402;-64
2023/05/10 03:59:11;;;;;;;5.03;3.63;;;;;;;;;;6208027;23;20361;-66
2023/05/10 04:01:38;;;;;;;6.25;4.13;;;;;;;;;;6207939;23;20017;-57
2023/05/10 04:04:06;;;;;;;7.38;4.20;;;;;;;;;;6208508;23;20025;-58
2023/05/10 04:06:40;;;;;;;10.70;3.88;;;;;;;;;;6208787;23;20374;-68
2023/05/10 04:09:08;;;;;;;8.48;4.10;;;;;;;;;;6210447;23;20025;-68
2023/05/10 04:11:41;;;;;;;11.98;3.85;;;;;;;;;;6208416;23;20359;-67
2023/05/10 04:14:08;;;;;;;9.10;3.85;;;;;;;;;;6208846;23;20025;-69
2023/05/10 04:16:36;;;;;;;8.25;3.42;;;;;;;;;;6208351;23;20031;-69
2023/05/10 04:19:16;;;;;;;7.60;3.50;;;;;;;;;;6209275;23;20070;-68
2023/05/10 04:21:43;;;;;;;5.05;3.20;;;;;;;;;;6208022;23;20031;-55
2023/05/10 04:24:17;;;;;;;13.82;3.80;;;;;;;;;;6208879;23;20020;-54
2023/05/10 04:26:45;;;;;;;10.85;3.60;;;;;;;;;;6208777;23;20079;-52
2023/05/10 04:29:12;;;;;;;;;;;;;;;;;;6179929;23;20090;-54
2023/05/10 04:31:46;;;;;;;9.32;3.72;;;;;;;;;;6207653;23;19977;-58
2023/05/10 04:34:13;;;;;;;8.73;3.10;;;;;;;;;;6208074;23;20104;-41
2023/05/10 04:36:47;;;;;;;10.52;4.15;;;;;;;;;;6203166;23;20020;-42
2023/05/10 04:39:14;;;;;;;7.70;4.07;;;;;;;;;;6205807;23;20025;-41
2023/05/10 04:41:41;;;;;;;6.80;3.78;;;;;;;;;;6202999;23;20446;-42
2023/05/10 04:44:15;;;;;;;6.82;3.78;;;;;;;;;;6201432;23;20654;-42
2023/05/10 04:46:42;;;;;;;9.63;4.28;;;;;;;;;;6192058;23;20577;-41
2023/05/10 04:49:17;;;;;;;6.20;3.30;;;;;;;;;;6203105;23;20040;-49
2023/05/10 04:51:44;;;;;;;8.63;3.72;;;;;;;;;;6204058;23;20024;-64
2023/05/10 04:54:11;;;;;;;7.75;3.67;;;;;;;;;;6206467;23;20016;-64
2023/05/10 04:56:45;;;;;;;7.95;3.47;;;;;;;;;;6208382;23;20020;-64
2023/05/10 04:59:12;;;;;;;12.43;4.35;;;;;;;;;;6208020;23;20112;-63
2023/05/10 05:01:46;;;;;;;8.35;3.65;;;;;;;;;;6209259;23;20295;-64
2023/05/10 05:04:14;;;;;;;13.52;4.18;;;;;;;;;;6208066;23;20378;-64
2023/05/10 05:06:41;;;;;;;6.90;3.60;;;;;;;;;;6208720;23;20028;-49
2023/05/10 05:09:19;;;;;;;3.83;3.20;;;;;;;;;;6207971;23;20021;-50
2023/05/10 05:11:46;;;;;;;5.53;3.70;;;;;;;;;;6208981;23;20028;-49
2023/05/10 05:14:13;;;;;;;9.50;4.40;;;;;;;;;;6208129;23;20096;-49
2023/05/10 05:16:53;;;;;;;9.93;3.67;;;;;;;;;;6208228;23;20140;-51
2023/05/10 05:19:20;;;;;;;5.82;3.30;;;;;;;;;;6209281;23;20024;-64
2023/05/10 05:21:54;;;;;;;12.13;4.35;;;;;;;;;;6208637;23;20087;-50
2023/05/10 05:24:22;;;;;;;7.00;4.40;;;;;;;;;;6208998;23;20063;-52
2023/05/10 05:26:49;;;;;;;4.50;3.38;;;;;;;;;;6207341;23;20029;-52
2023/05/10 05:29:22;;;;;;;5.55;3.50;;;;;;;;;;6208899;23;20031;-54
2023/05/10 05:31:49;;;;;;;7.57;3.70;;;;;;;;;;6209193;23;20095;-55
2023/05/10 05:34:24;;;;;;;9.30;3.92;;;;;;;;;;6208765;23;20055;-54
2023/05/10 05:36:51;;;;;;;5.65;3.50;;;;;;;;;;6208283;23;20028;-56
2023/05/10 05:39:18;;;;;;;9.77;3.60;;;;;;;;;;6208531;23;20021;-53
2023/05/10 05:41:52;;;;;;;7.25;3.78;;;;;;;;;;6208176;23;20024;-52
2023/05/10 05:44:19;;;;;;;5.60;3.80;;;;;;;;;;6208367;23;20064;-55
2023/05/10 05:46:46;;;;;;;6.30;3.15;;;;;;;;;;6208633;23;20074;-53
2023/05/10 05:49:20;;;;;;;10.13;4.05;;;;;;;;;;6208090;23;20021;-46
2023/05/10 05:51:49;;;;;;;12.55;2.97;;;;;;;;;;6208069;23;20055;-46
2023/05/10 05:54:23;;;;;;;8.05;3.83;;;;;;;;;;6208128;23;20092;-44
2023/05/10 05:56:50;;;;;;;5.85;3.35;;;;;;;;;;6207824;23;20048;-44
2023/05/10 05:59:17;;;;;;;5.78;3.20;;;;;;;;;;6207671;23;20103;-51
2023/05/10 06:01:52;;;;;;;8.27;3.53;;;;;;;;;;6208775;23;20123;-47
2023/05/10 06:04:19;;;;;;;5.75;3.63;;;;;;;;;;6208474;23;20033;-52
2023/05/10 06:06:54;;;;;;;14.82;3.65;;;;;;;;;;6207002;23;20075;-52
2023/05/10 06:09:21;;;;;;;17.88;3.88;;;;;;;;;;6208866;23;20060;-51
2023/05/10 06:11:48;;;;;;;6.45;2.95;;;;;;;;;;6207391;23;20056;-52
2023/05/10 06:14:21;;;;;;;7.32;3.72;;;;;;;;;;6208354;23;20119;-63
2023/05/10 06:16:55;;;;;;;6.93;3.70;;;;;;;;;;6207193;23;20031;-41
2023/05/10 06:19:29;;;;;;;8.55;3.92;;;;;;;;;;6207685;23;20047;-49
2023/05/10 06:21:57;;;;;;;6.18;3.55;;;;;;;;;;6181816;23;20114;-43
2023/05/10 06:24:24;;;;;;;8.55;3.42;;;;;;;;;;6209277;23;20439;-40
2023/05/10 06:27:00;;;;;;;6.32;3.45;;;;;;;;;;6207208;23;20103;-42
2023/05/10 06:29:27;;;;;;;11.55;4.28;;;;;;;;;;6207963;23;20439;-42
2023/05/10 06:32:01;;;;;;;11.88;4.28;;;;;;;;;;6208585;23;20542;-63
2023/05/10 06:34:28;;;;;;;5.95;3.70;;;;;;;;;;6207913;23;20025;-63
2023/05/10 06:37:03;;;;;;;6.70;3.22;;;;;;;;;;6207688;23;20029;-63
2023/05/10 06:39:30;;;;;;;6.82;3.63;;;;;;;;;;6207624;23;20064;-64
2023/05/10 06:41:57;;;;;;;10.30;3.25;;;;;;;;;;6205515;23;20026;-63
2023/05/10 06:44:32;;;;;;;10.70;3.60;;;;;;;;;;6207191;23;20060;-63
2023/05/10 06:46:59;;;;;;;9.00;3.17;;;;;;;;;;6206881;23;20091;-48
2023/05/10 06:49:32;;;;;;;9.73;3.55;;;;;;;;;;6206214;23;20056;-51
2023/05/10 06:52:00;;;;;;;6.30;3.30;;;;;;;;;;6208243;23;20088;-47
2023/05/10 06:54:27;;;;;;;7.28;3.65;;;;;;;;;;6207536;23;20533;-50
2023/05/10 06:57:00;;;;;;;7.53;3.75;;;;;;;;;;6207891;23;20021;-50
2023/05/10 06:59:30;;;;;;;7.70;3.50;;;;;;;;;;6207772;23;20021;-53
2023/05/10 07:02:04;;;;;;;7.68;3.72;;;;;;;;;;6184803;23;20095;-62
2023/05/10 07:04:31;;;;;;;7.60;3.72;;;;;;;;;;6206723;23;20024;-63
2023/05/10 07:06:58;;;;;;;7.05;3.25;;;;;;;;;;6207504;23;20498;-62
2023/05/10 07:09:32;;;;;;;6.43;3.60;;;;;;;;;;6208121;23;20541;-62
2023/05/10 07:12:01;;;;;;;9.63;3.90;;;;;;;;;;6207329;23;20025;-54
2023/05/10 07:14:38;;;;;;;;;;;;;;;;;;6207655;23;20135;-54
2023/05/10 07:17:17;;;;;;;6.80;3.45;;;;;;;;;;6207926;23;20290;-49
2023/05/10 07:19:51;;;;;;;6.25;3.55;;;;;;;;;;6207748;23;20062;-49
2023/05/10 07:22:19;;;;;;;8.63;3.10;;;;;;;;;;6207652;23;20067;-51
2023/05/10 07:24:46;;;;;;;6.95;3.00;;;;;;;;;;6207775;23;20036;-52
2023/05/10 07:27:20;;;;;;;5.28;3.55;;;;;;;;;;6206993;23;20407;-50
2023/05/10 07:29:54;;;;;;;4.38;3.00;;;;;;;;;;6207017;23;20024;-52
2023/05/10 07:32:22;;;;;;;7.20;3.67;;;;;;;;;;6207799;23;20060;-55
2023/05/10 07:34:55;;;;;;;5.20;3.00;;;;;;;;;;6208640;23;20020;-54
2023/05/10 07:37:23;;;;;;;7.63;3.65;;;;;;;;;;6207700;23;20031;-51
2023/05/10 07:39:50;;;;;;;7.13;3.35;;;;;;;;;;6207283;23;20103;-47
2023/05/10 07:42:23;;;;;;;6.03;3.70;;;;;;;;;;6208040;23;20052;-63
2023/05/10 07:44:51;;;;;;;4.80;2.58;;;;;;;;;;6206359;23;20028;-63
2023/05/10 07:47:24;;;;;;;6.28;3.50;;;;;;;;;;6207915;23;20099;-63
2023/05/10 07:49:51;;;;;;;6.10;3.17;;;;;;;;;;6207457;23;20028;-63
2023/05/10 07:52:19;;;;;;;4.93;3.28;;;;;;;;;;6207588;23;20096;-62
2023/05/10 07:54:53;;;;;;;8.38;3.42;;;;;;;;;;6206186;23;20561;-63
2023/05/10 07:57:20;;;;;;;10.25;3.75;;;;;;;;;;6207302;23;20489;-52
2023/05/10 07:59:54;;;;;;;9.10;3.60;;;;;;;;;;6206848;23;20047;-45
2023/05/10 08:02:21;;;;;;;8.35;4.00;;;;;;;;;;6206666;23;20096;-43
2023/05/10 08:04:49;;;;;;;6.65;3.28;;;;;;;;;;6207731;23;20046;-43
2023/05/10 08:07:23;;;;;;;10.07;3.53;;;;;;;;;;6207526;23;20100;-60
2023/05/10 08:09:50;;;;;;;9.85;3.50;;;;;;;;;;6206874;23;20150;-61
2023/05/10 08:12:24;;;;;;;9.73;3.58;;;;;;;;;;6205685;23;20044;-50
2023/05/10 08:15:00;;;;;;;11.05;3.10;;;;;;;;;;6182599;23;20461;-50
2023/05/10 08:17:40;;;;;;;5.97;3.20;;;;;;;;;;6206057;23;20112;-54
2023/05/10 08:20:07;;;;;;;9.93;2.97;;;;;;;;;;6208109;23;20848;-49
2023/05/10 08:22:41;;;;;;;10.75;3.03;;;;;;;;;;6207350;23;20405;-52
2023/05/10 08:25:08;;;;;;;4.35;3.08;;;;;;;;;;6206319;23;20112;-53
2023/05/10 08:27:36;;;;;;;8.45;3.10;;;;;;;;;;6180917;23;20021;-54
2023/05/10 08:30:10;;;;;;;5.35;2.85;;;;;;;;;;6207305;23;20025;-52
2023/05/10 08:32:37;;;;;;;3.72;2.90;;;;;;;;;;6206625;23;20115;-53
2023/05/10 08:35:11;;;;;;;6.32;3.03;;;;;;;;;;6209477;23;20025;-56
2023/05/10 08:37:38;;;;;;;7.05;3.25;;;;;;;;;;6209048;23;20027;-56
2023/05/10 08:40:13;;;;;;;8.23;3.40;;;;;;;;;;6208759;23;20025;-56
2023/05/10 08:42:40;;;;;;;;;;;;;;;;;;6208971;23;20021;-47
2023/05/10 08:45:11;;;;;;;8.07;3.55;;;;;;;;;;6209198;23;19926;-47
2023/05/10 08:47:45;;;;;;;8.15;2.75;;;;;;;;;;6208119;23;20020;-53
2023/05/10 08:50:12;;;;;;;8.05;3.03;;;;;;;;;;6210177;23;20047;-50
2023/05/10 08:52:48;;;;;;;10.70;3.38;;;;;;;;;;6208540;23;20021;-53
2023/05/10 08:55:16;;;;;;;5.93;3.22;;;;;;;;;;6209580;23;20273;-59
2023/05/10 08:57:50;;;;;;;4.68;3.30;;;;;;;;;;6208397;23;20063;-58
2023/05/10 09:00:18;;;;;;;4.00;2.72;;;;;;;;;;6208443;23;20034;-58
2023/05/10 09:02:46;;;;;;;7.53;3.03;;;;;;;;;;6208320;23;20051;-57
2023/05/10 09:05:19;;;;;;;6.60;2.72;;;;;;;;;;6208663;23;20024;-47
2023/05/10 09:07:47;;;;;;;;;;;;;;;;;;6209237;23;20027;-45
2023/05/10 09:10:21;;;;;;;7.55;3.10;;;;;;;;;;6208646;23;20238;-46
2023/05/10 09:12:49;;;;;;;10.60;3.22;;;;;;;;;;6207814;23;20489;-50
2023/05/10 09:15:19;;;;;;;6.68;2.63;;;;;;;;;;6208510;23;20104;-45
2023/05/10 09:18:02;;;;;;;6.57;2.90;;;;;;;;;;6177762;23;20076;-50
2023/05/10 09:20:35;;;;;;;7.97;3.17;;;;;;;;;;6178647;23;20025;-49
2023/05/10 09:23:09;;;;;;;3.75;2.20;;;;;;;;;;6179357;23;20057;-52
2023/05/10 09:25:38;;;;;;;5.13;2.90;;;;;;;;;;6177696;23;20128;-48
2023/05/10 09:28:15;;;;;;;6.20;2.83;;;;;;;;;;6178462;23;20029;-50
2023/05/10 09:30:55;;;;;;;9.25;3.30;;;;;;;;;;6178226;23;20036;-49
2023/05/10 09:33:22;;;;;;;5.60;2.92;;;;;;;;;;6178316;23;20021;-63
2023/05/10 09:36:07;;;;;;;6.80;2.85;;;;;;;;;;6178886;23;20051;-43
2023/05/10 09:38:45;;;;;;;8.38;2.80;;;;;;;;;;6178032;23;20108;-51
2023/05/10 09:41:22;;;;;;;8.45;3.00;;;;;;;;;;6179648;23;20027;-49
2023/05/10 09:43:51;;;;;;;6.95;2.80;;;;;;;;;;6177422;23;20104;-46
2023/05/10 09:46:18;;;;;;;6.25;3.15;;;;;;;;;;6177617;23;20025;-46
2023/05/10 09:48:52;;;;;;;5.30;2.80;;;;;;;;;;6177674;23;20475;-49
2023/05/10 09:51:20;;;;;;;8.77;3.28;;;;;;;;;;6178764;23;20080;-46
2023/05/10 09:54:16;;;;;;;5.90;3.00;;;;;;;;;;6177480;23;20391;-47
2023/05/10 09:56:44;;;;;;;8.57;2.90;;;;;;;;;;6179023;23;20021;-47
2023/05/10 09:59:19;;;;;;;4.45;2.80;;;;;;;;;;6153992;23;20032;-44
2023/05/10 10:01:52;;;;;;;5.90;3.33;;;;;;;;;;6176509;23;20447;-53
2023/05/10 10:04:27;;;;;;;5.85;3.00;;;;;;;;;;6154460;23;20029;-47
2023/05/10 10:07:04;;;;;;;8.77;3.13;;;;;;;;;;6177365;23;20021;-48
2023/05/10 10:09:37;;;;;;;5.47;2.88;;;;;;;;;;6177538;23;20021;-50
2023/05/10 10:12:05;;;;;;;5.00;2.75;;;;;;;;;;6177854;23;20052;-47
2023/05/10 10:14:32;;;;;;;;;;;;;;;;;;6178679;23;20025;-50
2023/05/10 10:17:19;;;;;;;9.45;2.75;;;;;;;;;;6199670;23;19916;-48
2023/05/10 10:19:53;;;;;;;5.75;2.88;;;;;;;;;;6208697;23;20021;-61
2023/05/10 10:22:21;;;;;;;4.85;2.80;;;;;;;;;;6208091;23;20390;-60
2023/05/10 10:24:49;;;;;;;2.88;2.58;;;;;;;;;;6207651;23;20115;-60
2023/05/10 10:27:34;;;;;;;4.97;2.97;;;;;;;;;;6207621;23;20561;-60
2023/05/10 10:30:07;;;;;;;7.35;2.53;;;;;;;;;;6206806;23;20506;-55
2023/05/10 10:32:52;;;;;;;6.25;2.67;;;;;;;;;;6208417;23;20028;-54
2023/05/10 10:35:20;;;;;;;6.40;2.72;;;;;;;;;;6207870;23;20537;-61
2023/05/10 10:37:53;;;;;;;5.43;2.42;;;;;;;;;;6207585;23;20027;-61
2023/05/10 10:40:24;;;;;;;7.07;2.70;;;;;;;;;;6208036;23;20115;-61
2023/05/10 10:43:27;;;;;;;7.35;2.90;;;;;;;;;;6207276;23;20327;-61
2023/05/10 10:46:13;;;;;;;5.93;3.20;;;;;;;;;;6200790;23;20025;-61
2023/05/10 10:49:09;;;;;;;5.25;2.70;;;;;;;;;;6208180;23;20021;-57
2023/05/10 10:51:40;;;;;;;6.85;3.03;;;;;;;;;;6189363;23;20067;-55
2023/05/10 10:54:27;;;;;;;7.53;3.17;;;;;;;;;;6206748;23;20056;-56
2023/05/10 10:57:13;;;;;;;12.90;2.70;;;;;;;;;;6208041;23;20481;-57
2023/05/10 10:59:47;;;;;;;7.40;2.60;;;;;;;;;;6207250;23;20079;-55
2023/05/10 11:02:34;;;;;;;7.25;2.60;;;;;;;;;;6207598;23;20024;-56
2023/05/10 11:05:36;;;;;;;5.88;2.47;;;;;;;;;;6181908;23;20548;-55
2023/05/10 11:08:14;;;;;;;4.20;2.95;;;;;;;;;;6207066;23;20064;-53
2023/05/10 11:10:53;;;;;;;5.45;2.47;;;;;;;;;;6207527;23;20052;-54
2023/05/10 11:13:38;;;;;;;4.90;2.72;;;;;;;;;;6208491;23;20184;-52
2023/05/10 11:16:25;;;;;;;6.75;2.90;;;;;;;;;;6206959;23;20021;-50
2023/05/10 11:19:05;;;;;;;7.00;3.13;;;;;;;;;;6207218;23;20021;-47
2023/05/10 11:22:03;;;;;;;6.40;2.88;;;;;;;;;;6206990;23;20017;-49
2023/05/10 11:24:30;;;;;;;9.55;2.70;;;;;;;;;;6188859;23;20605;-47
2023/05/10 11:27:03;;;;;;;8.20;2.60;;;;;;;;;;6182896;23;20052;-61
2023/05/10 11:29:30;;;;;;;5.22;2.78;;;;;;;;;;6208544;23;20086;-61
2023/05/10 11:32:07;;;;;;;4.13;2.75;;;;;;;;;;6206775;23;20059;-44
2023/05/10 11:34:35;;;;;;;8.50;2.80;;;;;;;;;;6207535;23;20020;-45
2023/05/10 11:37:02;;;;;;;4.95;2.63;;;;;;;;;;6207145;23;20056;-44
2023/05/10 11:39:35;;;;;;;4.78;2.33;;;;;;;;;;6207038;23;20020;-44
2023/05/10 11:42:03;;;;;;;4.70;2.67;;;;;;;;;;6206480;23;20067;-44
2023/05/10 11:44:31;;;;;;;;;;;;;;;;;;6207543;23;20025;-44
2023/05/10 11:47:05;;;;;;;8.55;2.60;;;;;;;;;;6208006;23;19923;-57
2023/05/10 11:49:33;;;;;;;5.30;2.88;;;;;;;;;;6207447;23;20048;-59
2023/05/10 11:52:07;;;;;;;8.25;3.00;;;;;;;;;;6207163;23;20362;-59
2023/05/10 11:54:35;;;;;;;7.07;2.60;;;;;;;;;;6206829;23;20020;-60
2023/05/10 11:57:02;;;;;;;7.95;3.00;;;;;;;;;;6207672;23;20028;-59
2023/05/10 11:59:37;;;;;;;16.83;3.05;;;;;;;;;;6206474;23;20444;-54
2023/05/10 12:02:10;;;;;;;4.07;2.40;;;;;;;;;;6208171;23;20112;-58
2023/05/10 12:04:38;;;;;;;;;;;;;;;;;;6208125;23;20103;-56
2023/05/10 12:07:05;;;;;;;6.88;2.70;;;;;;;;;;6206272;23;19920;-55
2023/05/10 12:09:42;;;;;;;11.00;3.22;;;;;;;;;;6208880;23;20099;-56
2023/05/10 12:12:10;;;;;;;6.88;2.60;;;;;;;;;;6209421;23;20032;-59
2023/05/10 12:14:57;;;;;;;7.57;2.53;;;;;;;;;;6185299;23;20083;-82
2023/05/10 12:17:31;;;;;;;10.52;2.58;;;;;;;;;;6210885;23;20032;-82
2023/05/10 12:20:22;;;;;;;8.63;2.80;;;;;;;;;;6210209;23;20033;-81
2023/05/10 12:22:50;;;;;;;4.20;2.25;;;;;;;;;;6210212;23;20027;-81
2023/05/10 12:25:30;;;;;;;3.33;2.60;;;;;;;;;;6210203;23;20337;-81
2023/05/10 12:28:01;;;;;;;5.50;2.50;;;;;;;;;;6210594;23;20473;-81
2023/05/10 12:30:35;;;;;;;8.48;2.97;;;;;;;;;;6209737;23;20020;-82
2023/05/10 12:33:09;;;;;;;6.63;2.45;;;;;;;;;;6210727;23;20123;-80
2023/05/10 12:35:53;;;;;;;5.18;2.85;;;;;;;;;;6210741;23;20051;-81
2023/05/10 12:38:29;;;;;;;11.13;2.97;;;;;;;;;;6183933;23;20107;-82
2023/05/10 12:41:07;;;;;;;4.00;2.35;;;;;;;;;;6210448;23;20028;-81
2023/05/10 12:43:41;;;;;;;6.78;2.30;;;;;;;;;;6209650;23;20098;-81
2023/05/10 12:46:15;;;;;;;7.90;2.50;;;;;;;;;;6209556;23;20099;-81
2023/05/10 12:48:54;;;;;;;8.55;2.45;;;;;;;;;;6209464;23;20017;-81
2023/05/10 12:51:35;;;;;;;5.82;2.65;;;;;;;;;;6210096;23;20024;-81
2023/05/10 12:54:03;;;;;;;8.20;2.22;;;;;;;;;;6210587;23;20021;-81
2023/05/10 12:56:36;;;;;;;6.78;3.03;;;;;;;;;;6185038;23;20219;-81
2023/05/10 12:59:04;;;;;;;4.18;2.50;;;;;;;;;;6209444;23;20052;-81
2023/05/10 13:01:31;;;;;;;8.45;2.33;;;;;;;;;;6182868;23;20104;-81
2023/05/10 13:04:06;;;;;;;7.05;2.50;;;;;;;;;;6209751;23;20021;-81
2023/05/10 13:06:33;;;;;;;;;;;;;;;;;;6209582;23;20545;-82
2023/05/10 13:09:06;;;;;;;4.28;2.33;;;;;;;;;;6210914;23;19919;-81
2023/05/10 13:11:34;;;;;;;3.95;2.25;;;;;;;;;;6210582;23;20044;-81
2023/05/10 13:14:20;;;;;;;6.75;2.53;;;;;;;;;;6209024;23;20029;-81
2023/05/10 13:16:54;;;;;;;4.72;2.58;;;;;;;;;;6209653;23;20477;-81
2023/05/10 13:19:29;;;;;;;4.18;2.22;;;;;;;;;;6209772;23;20398;-82
2023/05/10 13:21:56;;;;;;;8.98;2.58;;;;;;;;;;6209753;23;20052;-81
2023/05/10 13:24:23;;;;;;;5.72;2.40;;;;;;;;;;6183461;23;20023;-81
2023/05/10 13:26:58;;;;;;;8.63;2.72;;;;;;;;;;6210851;23;20312;-82
2023/05/10 13:29:25;;;;;;;6.38;2.15;;;;;;;;;;6209960;23;20071;-81
2023/05/10 13:31:59;;;;;;;8.23;2.03;;;;;;;;;;6211300;23;20101;-81
2023/05/10 13:34:27;;;;;;;8.65;2.55;;;;;;;;;;6209459;23;20078;-81
2023/05/10 13:36:55;;;;;;;;;;;;;;;;;;6210172;23;20028;-80
2023/05/10 13:39:33;;;;;;;6.88;2.45;;;;;;;;;;6209014;23;19930;-81
2023/05/10 13:42:00;;;;;;;3.60;2.13;;;;;;;;;;6210566;23;20537;-84
2023/05/10 13:44:34;;;;;;;5.15;2.20;;;;;;;;;;6208829;23;20087;-81
2023/05/10 13:47:01;;;;;;;5.65;2.13;;;;;;;;;;6209332;23;20091;-81
2023/05/10 13:49:28;;;;;;;12.07;2.38;;;;;;;;;;6209749;23;20099;-81
2023/05/10 13:52:06;;;;;;;3.72;2.35;;;;;;;;;;6209628;23;20108;-81
2023/05/10 13:54:35;;;;;;;5.60;2.42;;;;;;;;;;6209326;23;20091;-81
2023/05/10 13:57:08;;;;;;;7.88;2.22;;;;;;;;;;6209776;23;20099;-81
2023/05/10 13:59:36;;;;;;;6.40;2.28;;;;;;;;;;6182706;23;20060;-82
2023/05/10 14:02:03;;;;;;;3.10;2.05;;;;;;;;;;6183764;23;20059;-82
2023/05/10 14:04:38;;;;;;;3.53;2.47;;;;;;;;;;6208815;23;20496;-81
2023/05/10 14:07:06;;;;;;;5.78;2.67;;;;;;;;;;6209192;23;20095;-82
2023/05/10 14:09:39;;;;;;;9.00;3.00;;;;;;;;;;6209456;23;20020;-81
2023/05/10 14:12:07;;;;;;;5.18;2.40;;;;;;;;;;6208237;23;20020;-82
2023/05/10 14:14:34;;;;;;;6.00;2.25;;;;;;;;;;6181825;23;20029;-81
2023/05/10 14:17:14;;;;;;;7.05;2.38;;;;;;;;;;6208937;23;20067;-82
2023/05/10 14:19:41;;;;;;;6.90;2.58;;;;;;;;;;6207650;23;20035;-83
2023/05/10 14:22:15;;;;;;;4.38;2.10;;;;;;;;;;6207148;23;20339;-82
2023/05/10 14:24:46;;;;;;;9.27;2.60;;;;;;;;;;6206225;23;20407;-82
2023/05/10 14:27:13;;;;;;;6.72;2.28;;;;;;;;;;6181654;23;20032;-83
2023/05/10 14:29:48;;;;;;;8.68;2.83;;;;;;;;;;6207565;23;20092;-83
2023/05/10 14:32:15;;;;;;;5.30;2.22;;;;;;;;;;6207459;23;20410;-83
2023/05/10 14:34:48;;;;;;;5.30;2.08;;;;;;;;;;6207327;23;20044;-82
2023/05/10 14:37:16;;;;;;;4.05;2.22;;;;;;;;;;6208213;23;20103;-83
2023/05/10 14:39:43;;;;;;;4.15;2.25;;;;;;;;;;6208466;23;20100;-83
2023/05/10 14:42:17;;;;;;;7.85;2.10;;;;;;;;;;6208246;23;20067;-83
2023/05/10 14:44:45;;;;;;;4.63;2.25;;;;;;;;;;6207537;23;20066;-83
2023/05/10 14:47:18;;;;;;;4.43;2.05;;;;;;;;;;6208811;23;20486;-82
2023/05/10 14:49:46;;;;;;;4.93;2.13;;;;;;;;;;6208382;23;20067;-82
2023/05/10 14:52:14;;;;;;;4.63;2.35;;;;;;;;;;6208390;23;20095;-83
2023/05/10 14:54:47;;;;;;;5.90;2.20;;;;;;;;;;6208195;23;20024;-82
2023/05/10 14:57:15;;;;;;;2.72;1.88;;;;;;;;;;6182149;23;20473;-81
2023/05/10 14:59:48;;;;;;;7.30;2.47;;;;;;;;;;6208331;23;20095;-83
2023/05/10 15:02:16;;;;;;;9.00;2.40;;;;;;;;;;6208642;23;20038;-83
2023/05/10 15:04:44;;;;;;;6.10;2.50;;;;;;;;;;6206992;23;20021;-82
2023/05/10 15:07:18;;;;;;;6.03;2.45;;;;;;;;;;6208498;23;20033;-83
2023/05/10 15:09:45;;;;;;;6.68;2.10;;;;;;;;;;6208533;23;20016;-84
2023/05/10 15:12:20;;;;;;;5.65;2.33;;;;;;;;;;6209533;23;20095;-82
2023/05/10 15:14:53;;;;;;;;;;;;;;;;;;6209129;23;20032;-82